Time;durP1;ratioP1;P1;durP2;ratioP2;P2;SDS_P1;SDS_P2;PMS_P1;PMS_P2;Temp;Humidity;BMP_temperature;BMP_pressure;BME280_temperature;BME280_humidity;BME280_pressure;Samples;Min_cycle;Max_cycle;Signal;HPM_P1;HPM_P2
2021/05/30 00:01:48;;;;;;;6.95;4.15;;;13.30;96.90;;;;;;5062858;28;20479;-69
2021/05/30 00:04:15;;;;;;;6.53;4.20;;;13.20;96.80;;;;;;5043114;28;20792;-69
2021/05/30 00:06:42;;;;;;;5.95;4.28;;;13.20;96.90;;;;;;5068448;28;20192;-69
2021/05/30 00:09:09;;;;;;;6.28;4.20;;;13.20;96.90;;;;;;5043001;28;20111;-70
2021/05/30 00:11:37;;;;;;;7.78;4.50;;;13.20;96.90;;;;;;5052424;28;20041;-70
2021/05/30 00:14:16;;;;;;;6.07;4.15;;;13.10;96.90;;;;;;5046222;28;20484;-70
2021/05/30 00:16:44;;;;;;;7.80;4.25;;;13.10;97.00;;;;;;5044039;28;20421;-69
2021/05/30 00:19:11;;;;;;;6.95;4.53;;;13.00;96.90;;;;;;5053161;28;20048;-69
2021/05/30 00:21:38;;;;;;;7.32;4.63;;;13.00;97.00;;;;;;5051994;28;20451;-69
2021/05/30 00:24:06;;;;;;;6.78;4.47;;;12.90;96.90;;;;;;5059532;28;20129;-70
2021/05/30 00:26:32;;;;;;;7.88;4.70;;;12.90;97.00;;;;;;5056323;28;20044;-70
2021/05/30 00:28:59;;;;;;;8.88;4.75;;;12.90;96.90;;;;;;5072689;28;20069;-70
2021/05/30 00:31:44;;;;;;;5.95;4.20;;;12.90;96.90;;;;;;5058914;28;20072;-70
2021/05/30 00:37:36;;;;;;;7.68;4.53;;;12.90;96.90;;;;;;5054865;28;20130;-70
2021/05/30 00:40:03;;;;;;;8.05;5.00;;;12.80;96.70;;;;;;5064150;28;20143;-69
2021/05/30 00:42:30;;;;;;;6.35;4.43;;;12.80;96.70;;;;;;5047277;28;20081;-69
2021/05/30 00:44:57;;;;;;;7.63;4.40;;;12.80;96.80;;;;;;5041572;28;20440;-69
2021/05/30 00:47:23;;;;;;;6.82;4.32;;;12.70;96.70;;;;;;5050830;28;20457;-70
2021/05/30 00:49:50;;;;;;;5.65;4.03;;;12.80;96.80;;;;;;5062464;28;20045;-69
2021/05/30 00:55:58;;;;;;;7.07;4.20;;;12.70;96.80;;;;;;5039294;28;20056;-69
2021/05/30 00:58:26;;;;;;;6.30;4.50;;;12.60;96.70;;;;;;5075366;28;20107;-69
2021/05/30 01:00:52;;;;;;;6.22;4.35;;;12.60;96.70;;;;;;5057457;28;20077;-70
2021/05/30 01:03:19;;;;;;;7.25;4.25;;;12.50;96.70;;;;;;5051337;28;20622;-70
2021/05/30 01:05:47;;;;;;;5.75;4.40;;;12.50;96.80;;;;;;5040283;28;21076;-69
2021/05/30 01:08:15;;;;;;;6.65;4.45;;;12.50;96.80;;;;;;5057509;28;20069;-69
2021/05/30 01:10:46;;;;;;;7.40;4.07;;;12.40;96.70;;;;;;5051362;28;20202;-70
2021/05/30 01:13:14;;;;;;;5.70;3.90;;;12.40;96.80;;;;;;5056780;28;20530;-70
2021/05/30 01:15:41;;;;;;;7.22;4.22;;;12.40;96.70;;;;;;5065377;28;20081;-69
2021/05/30 01:18:08;;;;;;;6.18;3.97;;;12.40;96.80;;;;;;5049895;28;20056;-70
2021/05/30 01:20:35;;;;;;;6.53;4.05;;;12.40;96.80;;;;;;5040978;28;20424;-69
2021/05/30 01:23:12;;;;;;;6.57;4.63;;;12.30;96.70;;;;;;5059233;28;20087;-70
2021/05/30 01:25:39;;;;;;;7.47;4.60;;;12.30;96.70;;;;;;5057179;28;20049;-70
2021/05/30 01:28:06;;;;;;;5.65;3.67;;;12.20;96.70;;;;;;5043739;28;20085;-70
2021/05/30 01:30:34;;;;;;;7.13;4.28;;;12.20;96.70;;;;;;5039471;28;20045;-69
2021/05/30 01:33:01;;;;;;;5.95;3.95;;;12.20;96.70;;;;;;5042849;28;20088;-70
2021/05/30 01:35:28;;;;;;;6.47;4.10;;;12.20;96.80;;;;;;5045374;28;20124;-70
2021/05/30 01:37:55;;;;;;;6.43;3.67;;;12.10;96.70;;;;;;5034606;28;20421;-69
2021/05/30 01:40:23;;;;;;;7.32;4.03;;;12.10;96.70;;;;;;5043165;28;20088;-69
2021/05/30 01:42:52;;;;;;;6.10;4.22;;;12.10;96.80;;;;;;5047087;28;20111;-70
2021/05/30 01:45:21;;;;;;;8.77;4.07;;;12.10;96.80;;;;;;5058148;28;20076;-70
2021/05/30 01:47:48;;;;;;;5.85;4.13;;;12.00;96.70;;;;;;5063209;28;20076;-69
2021/05/30 01:50:18;;;;;;;4.78;3.80;;;12.00;96.70;;;;;;5043028;28;20080;-69
2021/05/30 01:52:46;;;;;;;5.38;3.75;;;12.00;96.80;;;;;;5039184;28;20186;-70
2021/05/30 01:57:53;;;;;;;6.40;3.83;;;11.90;96.70;;;;;;5035533;28;20106;-69
2021/05/30 02:00:21;;;;;;;5.75;3.85;;;11.90;96.70;;;;;;5051394;28;20100;-69
2021/05/30 02:02:54;;;;;;;6.40;3.55;;;11.80;96.70;;;;;;5048536;28;20092;-69
2021/05/30 02:05:22;;;;;;;4.80;3.47;;;11.80;96.70;;;;;;5051247;28;20076;-70
2021/05/30 02:07:50;;;;;;;;;;;11.80;96.70;;;;;;5053009;28;20052;-69
2021/05/30 02:10:18;;;;;;;4.45;3.33;;;11.70;96.80;;;;;;5052222;28;19927;-70
2021/05/30 02:12:48;;;;;;;5.55;3.92;;;11.70;96.60;;;;;;5037575;28;20469;-70
2021/05/30 02:15:15;;;;;;;4.78;3.42;;;11.60;96.50;;;;;;5042880;28;20090;-70
2021/05/30 02:17:42;;;;;;;5.83;3.53;;;11.60;96.50;;;;;;5043444;28;20084;-69
2021/05/30 02:20:12;;;;;;;5.38;3.72;;;11.60;96.60;;;;;;5052894;28;20333;-70
2021/05/30 02:22:39;;;;;;;5.25;3.47;;;11.60;96.60;;;;;;5049816;28;20073;-70
2021/05/30 02:25:09;;;;;;;4.90;3.60;;;11.50;96.50;;;;;;5054515;28;20081;-70
2021/05/30 02:27:36;;;;;;;6.28;3.85;;;11.50;96.50;;;;;;5039854;28;20057;-70
2021/05/30 02:30:04;;;;;;;5.20;3.80;;;11.50;96.50;;;;;;5050913;28;20077;-70
2021/05/30 02:32:31;;;;;;;7.68;4.07;;;11.50;96.60;;;;;;5049626;28;20202;-70
2021/05/30 02:34:57;;;;;;;6.47;3.80;;;11.40;96.50;;;;;;5061198;28;20103;-70
2021/05/30 02:37:55;;;;;;;5.53;3.83;;;11.40;96.50;;;;;;5050215;28;20131;-70
2021/05/30 02:40:25;;;;;;;6.47;4.30;;;11.40;96.60;;;;;;5048825;28;20068;-70
2021/05/30 02:42:52;;;;;;;5.65;3.60;;;11.40;96.50;;;;;;5041162;28;20113;-69
2021/05/30 02:45:18;;;;;;;7.57;4.22;;;11.40;96.50;;;;;;5047245;28;20108;-69
2021/05/30 02:47:45;;;;;;;7.43;4.00;;;11.40;96.50;;;;;;5032901;28;20126;-70
2021/05/30 02:50:13;;;;;;;5.40;3.70;;;11.30;96.50;;;;;;5040018;28;20049;-69
2021/05/30 02:52:40;;;;;;;5.35;3.75;;;11.30;96.50;;;;;;5061914;28;20134;-70
2021/05/30 02:55:07;;;;;;;6.22;4.00;;;11.30;96.50;;;;;;5048911;28;20057;-69
2021/05/30 02:57:34;;;;;;;5.90;4.10;;;11.30;96.60;;;;;;5045410;28;20076;-69
2021/05/30 03:00:01;;;;;;;6.85;3.88;;;11.30;96.60;;;;;;5038131;28;20045;-69
2021/05/30 03:02:27;;;;;;;5.55;3.78;;;11.30;96.60;;;;;;5044212;28;20076;-69
2021/05/30 03:08:36;;;;;;;5.18;3.90;;;11.20;96.60;;;;;;5043540;28;20236;-69
2021/05/30 03:11:02;;;;;;;5.00;3.30;;;11.20;96.50;;;;;;5058211;28;20447;-69
2021/05/30 03:13:29;;;;;;;6.70;3.72;;;11.10;96.50;;;;;;5036432;28;20076;-69
2021/05/30 03:15:57;;;;;;;4.68;3.60;;;11.00;96.60;;;;;;5028306;28;20079;-69
2021/05/30 03:18:24;;;;;;;5.50;3.83;;;11.00;96.60;;;;;;5022752;28;20145;-69
2021/05/30 03:20:51;;;;;;;4.93;3.53;;;10.90;96.60;;;;;;5035491;28;20362;-69
2021/05/30 03:23:18;;;;;;;5.47;3.25;;;10.90;96.70;;;;;;5045137;28;20446;-69
2021/05/30 03:25:45;;;;;;;5.85;4.10;;;10.90;96.70;;;;;;5047455;28;20739;-69
2021/05/30 03:28:11;;;;;;;4.15;3.30;;;10.80;96.70;;;;;;5041413;28;20092;-69
2021/05/30 03:30:38;;;;;;;4.28;3.25;;;10.80;96.70;;;;;;5066262;28;20322;-69
2021/05/30 03:33:05;;;;;;;3.95;2.95;;;10.70;96.70;;;;;;5059129;28;20073;-69
2021/05/30 03:35:32;;;;;;;5.28;3.50;;;10.70;96.70;;;;;;5064638;28;20076;-69
2021/05/30 03:38:00;;;;;;;4.43;3.00;;;10.70;96.70;;;;;;5053284;28;20052;-69
2021/05/30 03:40:33;;;;;;;4.22;3.15;;;10.60;96.70;;;;;;5053213;28;20082;-69
2021/05/30 03:43:00;;;;;;;4.65;3.30;;;10.60;96.70;;;;;;5038456;28;20101;-69
2021/05/30 03:45:27;;;;;;;4.43;3.28;;;10.60;96.80;;;;;;5055223;28;20049;-69
2021/05/30 03:47:54;;;;;;;4.72;2.92;;;10.50;96.80;;;;;;5044740;28;20132;-69
2021/05/30 03:50:21;;;;;;;4.65;3.17;;;10.50;96.80;;;;;;5055048;28;20072;-69
2021/05/30 03:56:29;;;;;;;4.88;2.75;;;10.50;96.80;;;;;;5038157;28;20503;-69
2021/05/30 03:58:56;;;;;;;3.88;2.95;;;10.40;96.80;;;;;;5043171;28;20081;-69
2021/05/30 04:01:23;;;;;;;4.85;3.30;;;10.40;96.80;;;;;;5059047;28;20049;-69
2021/05/30 04:03:50;;;;;;;5.38;3.40;;;10.40;96.90;;;;;;5057052;28;20052;-69
2021/05/30 04:06:17;;;;;;;3.72;3.00;;;10.40;96.90;;;;;;5026542;28;20493;-69
2021/05/30 04:08:46;;;;;;;5.10;3.53;;;10.40;97.00;;;;;;5054715;28;20420;-70
2021/05/30 04:11:15;;;;;;;4.00;3.17;;;10.40;97.10;;;;;;5032920;28;20412;-69
2021/05/30 04:13:42;;;;;;;5.18;3.53;;;10.50;97.10;;;;;;5067694;28;20098;-69
2021/05/30 04:16:09;;;;;;;5.15;3.65;;;10.50;97.20;;;;;;5041700;28;20081;-69
2021/05/30 04:18:36;;;;;;;5.53;3.80;;;10.60;97.20;;;;;;5036017;28;20131;-70
2021/05/30 04:21:04;;;;;;;5.85;3.85;;;10.70;97.30;;;;;;5068020;28;20072;-69
2021/05/30 04:23:31;;;;;;;5.78;3.72;;;10.80;97.40;;;;;;5039775;28;20116;-69
2021/05/30 04:25:58;;;;;;;8.10;4.18;;;10.90;97.40;;;;;;5045853;28;20497;-70
2021/05/30 04:28:25;;;;;;;6.63;3.80;;;10.90;97.50;;;;;;5051964;28;20077;-69
2021/05/30 04:30:52;;;;;;;6.40;4.10;;;11.00;97.60;;;;;;5048382;28;20041;-69
2021/05/30 04:33:19;;;;;;;6.57;4.13;;;11.10;97.70;;;;;;5052017;28;20554;-69
2021/05/30 04:35:45;;;;;;;6.28;4.20;;;11.10;97.70;;;;;;5051225;28;20088;-70
2021/05/30 04:38:12;;;;;;;8.10;4.38;;;11.20;97.90;;;;;;5054201;28;20049;-69
2021/05/30 04:40:39;;;;;;;6.00;4.10;;;11.30;97.90;;;;;;5045388;28;20076;-70
2021/05/30 04:43:06;;;;;;;6.07;3.88;;;11.40;98.00;;;;;;5059287;28;20084;-70
2021/05/30 04:45:32;;;;;;;7.32;4.20;;;11.40;98.10;;;;;;5040780;28;20073;-70
2021/05/30 04:47:59;;;;;;;6.45;4.38;;;11.50;98.20;;;;;;5038857;28;20170;-70
2021/05/30 04:50:26;;;;;;;5.55;3.75;;;11.60;98.30;;;;;;5058461;28;20396;-69
2021/05/30 04:52:53;;;;;;;7.43;4.32;;;11.70;98.40;;;;;;5044213;28;20050;-70
2021/05/30 04:55:20;;;;;;;5.20;3.92;;;11.70;98.50;;;;;;5050242;28;20099;-70
2021/05/30 04:57:47;;;;;;;6.55;4.20;;;11.80;98.60;;;;;;5051614;28;20077;-70
2021/05/30 05:00:15;;;;;;;7.00;3.97;;;11.90;98.60;;;;;;5049595;28;20452;-70
2021/05/30 05:02:42;;;;;;;6.90;4.13;;;11.90;98.70;;;;;;5042777;28;20106;-70
2021/05/30 05:05:11;;;;;;;6.07;3.85;;;12.00;98.80;;;;;;5065218;28;20049;-70
2021/05/30 05:07:42;;;;;;;6.85;4.07;;;12.00;99.00;;;;;;5029153;28;20137;-69
2021/05/30 05:10:10;;;;;;;6.53;3.50;;;12.10;98.90;;;;;;5035995;28;20037;-70
2021/05/30 05:12:37;;;;;;;7.95;4.40;;;12.20;99.00;;;;;;5032610;28;20476;-70
2021/05/30 05:15:04;;;;;;;7.85;4.00;;;12.20;99.00;;;;;;5023106;28;20111;-70
2021/05/30 05:17:31;;;;;;;7.13;4.27;;;12.30;99.10;;;;;;5043073;28;20459;-70
2021/05/30 05:19:58;;;;;;;7.50;4.45;;;12.40;99.20;;;;;;5051142;28;20460;-70
2021/05/30 05:22:24;;;;;;;8.77;4.43;;;12.40;99.20;;;;;;5047385;28;20045;-70
2021/05/30 05:25:01;;;;;;;8.18;4.05;;;12.50;99.30;;;;;;5038584;28;20124;-70
2021/05/30 05:27:28;;;;;;;7.75;3.67;;;12.50;99.40;;;;;;5057725;28;20463;-70
2021/05/30 05:29:55;;;;;;;7.90;4.07;;;12.60;99.50;;;;;;5055361;28;20048;-70
2021/05/30 05:32:21;;;;;;;4.82;3.65;;;12.70;99.60;;;;;;5051190;28;20077;-69
2021/05/30 05:34:48;;;;;;;7.10;4.05;;;12.80;99.70;;;;;;5042975;28;20125;-70
2021/05/30 05:37:15;;;;;;;6.30;4.40;;;12.90;99.80;;;;;;5028813;28;20064;-70
2021/05/30 05:39:41;;;;;;;7.53;3.97;;;13.00;99.80;;;;;;5031100;28;20083;-70
2021/05/30 05:42:08;;;;;;;5.60;4.18;;;13.00;99.80;;;;;;5045899;28;20041;-70
2021/05/30 05:44:35;;;;;;;7.20;3.95;;;13.10;99.80;;;;;;5054734;28;20041;-70
2021/05/30 05:47:04;;;;;;;8.18;3.90;;;13.10;99.90;;;;;;5049987;28;20123;-70
2021/05/30 05:49:33;;;;;;;6.47;4.03;;;13.20;99.90;;;;;;5049097;28;20103;-70
2021/05/30 05:52:00;;;;;;;6.55;4.53;;;13.20;99.90;;;;;;5044565;28;20106;-70
2021/05/30 05:54:45;;;;;;;6.93;4.05;;;13.30;99.90;;;;;;5037110;28;20484;-70
2021/05/30 05:57:12;;;;;;;7.32;4.40;;;13.40;99.90;;;;;;5064974;28;20045;-70
2021/05/30 05:59:38;;;;;;;6.28;3.95;;;13.50;99.90;;;;;;5066006;28;20099;-69
2021/05/30 06:02:05;;;;;;;5.18;4.22;;;13.50;99.90;;;;;;5039828;28;20073;-70
2021/05/30 06:04:32;;;;;;;7.82;4.70;;;13.60;99.90;;;;;;5063756;28;20128;-70
2021/05/30 06:07:00;;;;;;;6.93;4.25;;;13.70;99.90;;;;;;5029288;28;20072;-70
2021/05/30 06:09:27;;;;;;;6.63;4.18;;;13.70;99.90;;;;;;5027339;28;20145;-70
2021/05/30 06:11:54;;;;;;;9.40;4.75;;;13.80;99.90;;;;;;5041148;28;20042;-70
2021/05/30 06:14:20;;;;;;;7.50;4.90;;;13.90;99.90;;;;;;5036405;28;20132;-70
2021/05/30 06:16:47;;;;;;;8.05;4.70;;;13.90;99.90;;;;;;5029042;28;20198;-70
2021/05/30 06:19:14;;;;;;;6.55;4.60;;;14.00;99.90;;;;;;5029649;28;20489;-71
2021/05/30 06:21:40;;;;;;;7.57;5.05;;;14.10;99.90;;;;;;5019996;28;20145;-70
2021/05/30 06:24:08;;;;;;;8.75;4.53;;;14.10;99.90;;;;;;5029696;28;20147;-70
2021/05/30 06:26:34;;;;;;;6.53;4.05;;;14.20;99.90;;;;;;5029268;28;20080;-70
2021/05/30 06:29:01;;;;;;;7.15;4.80;;;14.30;99.90;;;;;;5029314;28;20413;-70
2021/05/30 06:31:28;;;;;;;6.80;4.63;;;14.30;99.90;;;;;;5027109;28;20509;-70
2021/05/30 06:33:55;;;;;;;7.05;4.63;;;14.40;99.90;;;;;;5029758;28;20054;-70
2021/05/30 06:36:22;;;;;;;7.63;4.65;;;14.50;99.90;;;;;;5042905;28;20081;-70
2021/05/30 06:38:48;;;;;;;7.15;4.82;;;14.50;99.90;;;;;;5026223;28;20052;-70
2021/05/30 06:41:17;;;;;;;6.88;4.85;;;14.60;99.90;;;;;;5052161;28;20069;-69
2021/05/30 06:43:44;;;;;;;6.78;4.90;;;14.70;99.90;;;;;;5031336;28;20471;-69
2021/05/30 06:46:11;;;;;;;7.57;5.18;;;14.80;99.90;;;;;;5048229;28;20162;-70
2021/05/30 06:48:38;;;;;;;6.03;4.28;;;14.80;99.90;;;;;;5051129;28;20551;-70
2021/05/30 06:51:12;;;;;;;6.15;4.20;;;14.90;99.90;;;;;;5040501;28;20042;-70
2021/05/30 06:53:39;;;;;;;5.85;4.15;;;15.00;99.90;;;;;;5044866;28;20481;-69
2021/05/30 06:56:06;;;;;;;6.87;4.63;;;15.00;99.90;;;;;;5057634;28;20203;-70
2021/05/30 06:58:33;;;;;;;6.00;4.40;;;15.10;99.90;;;;;;5055636;28;20056;-70
2021/05/30 07:01:00;;;;;;;6.60;4.75;;;15.10;99.90;;;;;;5052161;28;20744;-70
2021/05/30 07:03:26;;;;;;;7.07;4.88;;;15.20;99.90;;;;;;5038961;28;20045;-70
2021/05/30 07:05:53;;;;;;;6.07;4.53;;;15.30;99.90;;;;;;5038565;28;20069;-70
2021/05/30 07:08:20;;;;;;;6.70;4.75;;;15.30;99.90;;;;;;5032743;28;20073;-70
2021/05/30 07:10:46;;;;;;;8.43;5.07;;;15.40;99.90;;;;;;5028362;28;20073;-70
2021/05/30 07:13:13;;;;;;;7.10;4.97;;;15.50;99.90;;;;;;5029938;28;20088;-70
2021/05/30 07:15:40;;;;;;;7.18;5.10;;;15.50;99.90;;;;;;5040357;28;20132;-70
2021/05/30 07:18:07;;;;;;;7.20;4.72;;;15.60;99.90;;;;;;5035211;28;20052;-70
2021/05/30 07:20:34;;;;;;;5.88;4.25;;;15.60;99.90;;;;;;5054169;28;20068;-70
2021/05/30 07:23:00;;;;;;;6.50;4.53;;;15.70;99.90;;;;;;5060763;28;20102;-70
2021/05/30 07:25:27;;;;;;;7.07;5.10;;;15.80;99.90;;;;;;5046635;28;20041;-70
2021/05/30 07:27:55;;;;;;;6.95;4.97;;;15.80;99.90;;;;;;5047835;28;20118;-70
2021/05/30 07:30:22;;;;;;;6.22;4.75;;;15.90;99.90;;;;;;5032875;28;20077;-70
2021/05/30 07:32:49;;;;;;;7.05;4.95;;;16.00;99.90;;;;;;5028118;28;20536;-70
2021/05/30 07:35:15;;;;;;;5.53;4.88;;;16.00;99.90;;;;;;5045427;28;20041;-70
2021/05/30 07:37:42;;;;;;;6.22;4.80;;;16.10;99.90;;;;;;5035995;28;20083;-70
2021/05/30 07:40:10;;;;;;;7.15;4.72;;;16.20;99.90;;;;;;5043212;28;20588;-69
2021/05/30 07:42:36;;;;;;;6.35;4.70;;;16.20;99.90;;;;;;5037556;28;20132;-70
2021/05/30 07:45:05;;;;;;;7.43;4.80;;;16.20;99.90;;;;;;5047349;28;20478;-70
2021/05/30 07:47:32;;;;;;;6.05;4.78;;;16.30;99.90;;;;;;5039872;28;20079;-70
2021/05/30 07:49:59;;;;;;;8.30;5.30;;;16.40;99.90;;;;;;5035979;28;20128;-70
2021/05/30 07:52:26;;;;;;;6.40;5.00;;;16.40;99.90;;;;;;5047584;28;20041;-70
2021/05/30 07:54:52;;;;;;;6.70;4.85;;;16.50;99.90;;;;;;5042152;28;20045;-70
2021/05/30 07:57:19;;;;;;;6.10;5.15;;;16.50;99.90;;;;;;5039496;28;20433;-70
2021/05/30 07:59:46;;;;;;;7.05;5.15;;;16.60;99.90;;;;;;5044803;28;20099;-70
2021/05/30 08:02:13;;;;;;;7.93;5.53;;;16.60;99.90;;;;;;5028757;28;20076;-70
2021/05/30 08:04:40;;;;;;;6.18;4.90;;;16.70;99.90;;;;;;5036665;28;20055;-70
2021/05/30 08:07:33;;;;;;;6.85;4.78;;;16.70;99.90;;;;;;5046297;28;20083;-69
2021/05/30 08:10:00;;;;;;;7.18;5.25;;;16.70;99.90;;;;;;5038516;28;20075;-70
2021/05/30 08:12:27;;;;;;;6.70;5.47;;;16.80;99.90;;;;;;5043014;28;20046;-70
2021/05/30 08:14:54;;;;;;;7.10;5.10;;;16.80;99.90;;;;;;5050365;28;20526;-70
2021/05/30 08:17:20;;;;;;;6.47;5.50;;;16.90;99.90;;;;;;5039509;28;20456;-70
2021/05/30 08:19:47;;;;;;;6.63;5.43;;;16.90;99.90;;;;;;5036909;28;20468;-70
2021/05/30 08:22:14;;;;;;;7.05;5.25;;;17.00;99.90;;;;;;5042596;28;20084;-70
2021/05/30 08:24:43;;;;;;;7.38;5.65;;;17.00;99.90;;;;;;5036597;28;20053;-70
2021/05/30 08:27:10;;;;;;;8.07;6.13;;;17.10;99.90;;;;;;5039615;28;20135;-70
2021/05/30 08:29:37;;;;;;;7.90;5.63;;;17.10;99.90;;;;;;5032160;28;20049;-70
2021/05/30 08:32:05;;;;;;;6.90;5.80;;;17.10;99.90;;;;;;5024408;28;20069;-70
2021/05/30 08:34:32;;;;;;;7.10;6.03;;;17.20;99.90;;;;;;5038518;28;20128;-70
2021/05/30 08:36:59;;;;;;;6.55;5.70;;;17.20;99.90;;;;;;5035264;28;20192;-70
2021/05/30 08:39:25;;;;;;;7.88;5.70;;;17.20;99.90;;;;;;5024918;28;20071;-70
2021/05/30 08:41:52;;;;;;;7.45;5.35;;;17.30;99.90;;;;;;5046427;28;20428;-70
2021/05/30 08:44:19;;;;;;;8.82;6.35;;;17.40;99.90;;;;;;5066577;28;20254;-70
2021/05/30 08:46:46;;;;;;;7.88;6.40;;;17.40;99.90;;;;;;5049915;28;20080;-70
2021/05/30 08:49:13;;;;;;;8.10;6.75;;;17.40;99.90;;;;;;5046742;28;20132;-70
2021/05/30 08:51:41;;;;;;;8.48;6.70;;;17.40;99.90;;;;;;5043372;28;20075;-70
2021/05/30 08:54:09;;;;;;;;;;;17.40;99.90;;;;;;5050487;28;20037;-70
2021/05/30 08:56:38;;;;;;;8.27;6.70;;;17.30;99.90;;;;;;5042162;28;20414;-70
2021/05/30 08:59:29;;;;;;;7.47;6.47;;;17.30;99.90;;;;;;5047420;28;20433;-70
2021/05/30 09:01:59;;;;;;;9.25;7.15;;;17.30;99.90;;;;;;5036974;28;20098;-70
2021/05/30 09:04:31;;;;;;;10.63;6.95;;;17.30;99.90;;;;;;5026224;28;20041;-70
2021/05/30 09:06:57;;;;;;;8.57;7.13;;;17.20;99.90;;;;;;5047702;28;20076;-70
2021/05/30 09:09:24;;;;;;;8.45;6.65;;;17.30;99.90;;;;;;5054365;28;20179;-70
2021/05/30 09:11:53;;;;;;;9.50;7.68;;;17.30;99.90;;;;;;5044871;28;20094;-70
2021/05/30 09:14:29;;;;;;;10.70;8.23;;;17.40;99.90;;;;;;5067239;28;20116;-70
2021/05/30 09:17:01;;;;;;;9.20;7.50;;;17.30;99.90;;;;;;5036147;28;20069;-71
2021/05/30 09:19:48;;;;;;;8.95;7.13;;;17.30;99.90;;;;;;5041998;28;20045;-70
2021/05/30 09:22:15;;;;;;;10.20;8.05;;;17.40;99.90;;;;;;5032733;28;20555;-70
2021/05/30 09:24:47;;;;;;;9.70;8.65;;;17.40;99.90;;;;;;5038264;28;20049;-70
2021/05/30 09:27:31;;;;;;;7.97;7.05;;;17.50;99.90;;;;;;5048649;28;20048;-70
2021/05/30 09:30:42;;;;;;;7.93;7.00;;;17.60;99.90;;;;;;5044400;28;20107;-70
2021/05/30 09:33:18;;;;;;;7.70;6.47;;;17.60;99.90;;;;;;5053768;28;20045;-70
2021/05/30 09:35:44;;;;;;;8.73;7.82;;;17.80;99.90;;;;;;5041942;28;20390;-70
2021/05/30 09:38:28;;;;;;;9.25;7.82;;;17.80;99.90;;;;;;5064812;28;20467;-71
2021/05/30 09:40:54;;;;;;;8.85;7.95;;;17.70;99.90;;;;;;5043886;28;20049;-71
2021/05/30 09:43:47;;;;;;;9.40;7.07;;;17.60;99.90;;;;;;5050401;28;20136;-70
2021/05/30 09:46:18;;;;;;;9.73;7.78;;;17.50;99.90;;;;;;5048632;28;20094;-70
2021/05/30 09:48:51;;;;;;;8.23;6.68;;;17.50;99.90;;;;;;5049134;28;20045;-70
2021/05/30 09:51:28;;;;;;;7.28;5.57;;;17.60;99.90;;;;;;5066067;28;20087;-70
2021/05/30 09:54:01;;;;;;;6.37;5.17;;;17.60;99.90;;;;;;5047434;28;20053;-70
2021/05/30 09:56:36;;;;;;;5.35;4.45;;;17.80;99.90;;;;;;5048610;28;20072;-70
2021/05/30 09:59:17;;;;;;;5.82;4.00;;;17.90;99.90;;;;;;5032192;28;20076;-70
2021/05/30 10:01:56;;;;;;;5.65;4.10;;;18.00;99.90;;;;;;5044606;28;20072;-70
2021/05/30 10:04:24;;;;;;;5.53;4.05;;;18.10;99.90;;;;;;5037306;28;20417;-70
2021/05/30 10:06:52;;;;;;;6.22;4.95;;;18.20;99.90;;;;;;5039112;28;20045;-70
2021/05/30 10:09:19;;;;;;;6.07;4.93;;;18.20;99.90;;;;;;5034352;28;20128;-70
2021/05/30 10:11:45;;;;;;;6.68;4.22;;;18.20;99.90;;;;;;5022612;28;20460;-70
2021/05/30 10:14:12;;;;;;;7.05;5.15;;;18.30;99.90;;;;;;5049934;28;20045;-70
2021/05/30 10:16:39;;;;;;;5.57;4.82;;;18.30;99.90;;;;;;5039767;28;20070;-70
2021/05/30 10:19:08;;;;;;;6.70;5.10;;;18.30;99.90;;;;;;5053940;28;20134;-69
2021/05/30 10:22:00;;;;;;;5.65;4.50;;;18.40;99.90;;;;;;5054621;28;20100;-70
2021/05/30 10:24:29;;;;;;;6.53;4.28;;;18.40;99.90;;;;;;5049353;28;20048;-70
2021/05/30 10:27:19;;;;;;;6.43;4.30;;;18.40;99.90;;;;;;5059739;28;20176;-70
2021/05/30 10:30:11;;;;;;;4.68;3.72;;;18.50;99.90;;;;;;5040771;28;20353;-70
2021/05/30 10:32:40;;;;;;;6.53;4.90;;;18.60;99.90;;;;;;5035292;28;20535;-70
2021/05/30 10:35:10;;;;;;;5.75;4.20;;;18.60;99.90;;;;;;5041237;28;20051;-70
2021/05/30 10:37:50;;;;;;;5.63;4.22;;;18.70;99.90;;;;;;5041272;28;20045;-70
2021/05/30 10:40:20;;;;;;;5.85;4.55;;;18.80;99.90;;;;;;5038627;28;20050;-70
2021/05/30 10:45:42;;;;;;;5.13;3.53;;;18.80;99.90;;;;;;5036288;28;20045;-70
2021/05/30 10:48:13;;;;;;;4.35;3.78;;;18.90;99.90;;;;;;5044544;28;20045;-70
2021/05/30 10:50:58;;;;;;;4.07;3.35;;;18.90;99.90;;;;;;5032911;28;20046;-70
2021/05/30 10:53:38;;;;;;;4.97;2.95;;;19.00;99.90;;;;;;5040432;28;20187;-70
2021/05/30 10:56:18;;;;;;;4.85;3.42;;;19.00;99.90;;;;;;5037467;28;20178;-70
2021/05/30 10:59:05;;;;;;;4.35;2.63;;;19.10;99.90;;;;;;5022284;28;20080;-70
2021/05/30 11:01:35;;;;;;;3.05;2.75;;;19.20;99.90;;;;;;5049418;28;20072;-70
2021/05/30 11:04:24;;;;;;;3.03;2.33;;;19.30;99.90;;;;;;5046082;28;20408;-70
2021/05/30 11:07:03;;;;;;;3.03;2.15;;;19.40;99.90;;;;;;5040456;28;20049;-70
2021/05/30 11:09:48;;;;;;;3.80;2.30;;;19.40;99.90;;;;;;5065089;28;20095;-70
2021/05/30 11:12:32;;;;;;;3.45;2.67;;;19.60;99.70;;;;;;5043266;28;20041;-70
2021/05/30 11:15:11;;;;;;;2.58;2.15;;;19.60;98.90;;;;;;5039990;28;20217;-70
2021/05/30 11:17:42;;;;;;;3.15;2.10;;;19.60;99.50;;;;;;5043502;28;20069;-70
2021/05/30 11:20:15;;;;;;;3.08;1.95;;;19.60;99.70;;;;;;5037213;28;20073;-71
2021/05/30 11:22:54;;;;;;;3.05;2.20;;;19.70;99.60;;;;;;5041973;28;20045;-70
2021/05/30 11:25:34;;;;;;;2.70;2.10;;;19.70;99.60;;;;;;5045073;28;20095;-69
2021/05/30 11:28:23;;;;;;;2.28;1.80;;;19.80;99.60;;;;;;5047778;28;20586;-70
2021/05/30 11:30:52;;;;;;;1.75;1.33;;;19.80;99.60;;;;;;5021438;28;20128;-70
2021/05/30 11:33:22;;;;;;;2.83;1.60;;;19.90;99.50;;;;;;5034948;28;20068;-70
2021/05/30 11:35:52;;;;;;;1.73;1.50;;;20.00;99.40;;;;;;5035901;28;20041;-70
2021/05/30 11:38:19;;;;;;;1.30;1.20;;;20.10;99.30;;;;;;5035320;28;20076;-70
2021/05/30 11:41:10;;;;;;;1.88;1.33;;;20.10;99.10;;;;;;5040475;28;20092;-70
2021/05/30 11:43:37;;;;;;;1.42;1.13;;;20.10;98.40;;;;;;5057816;28;20084;-70
2021/05/30 11:46:13;;;;;;;1.60;1.23;;;20.20;98.80;;;;;;5043050;28;20506;-70
2021/05/30 11:48:42;;;;;;;1.70;1.40;;;20.20;98.50;;;;;;5041635;28;20078;-70
2021/05/30 11:51:09;;;;;;;2.10;1.08;;;20.20;98.60;;;;;;5048555;28;20444;-70
2021/05/30 11:53:36;;;;;;;1.38;1.25;;;20.30;98.40;;;;;;5042944;28;20090;-71
2021/05/30 11:56:05;;;;;;;1.67;1.27;;;20.30;97.20;;;;;;5044426;28;20128;-70
2021/05/30 11:58:43;;;;;;;1.45;1.00;;;20.30;97.00;;;;;;5022803;28;20168;-71
2021/05/30 12:01:10;;;;;;;;;;;20.30;97.30;;;;;;5046928;28;20076;-70
2021/05/30 12:03:48;;;;;;;1.45;0.95;;;20.30;96.70;;;;;;5041927;28;19921;-70
2021/05/30 12:06:15;;;;;;;1.50;1.00;;;20.30;97.60;;;;;;5034243;28;20183;-69
2021/05/30 12:08:54;;;;;;;0.80;0.80;;;20.40;97.60;;;;;;5043368;28;20080;-69
2021/05/30 12:11:21;;;;;;;0.82;0.77;;;20.50;96.70;;;;;;5042815;28;20492;-70
2021/05/30 12:13:47;;;;;;;1.27;0.85;;;20.50;97.00;;;;;;5045312;28;20469;-71
2021/05/30 12:16:19;;;;;;;0.90;0.77;;;20.60;97.10;;;;;;5058867;28;20072;-70
2021/05/30 12:18:56;;;;;;;1.38;0.73;;;20.60;96.80;;;;;;5046538;28;20057;-71
2021/05/30 12:21:25;;;;;;;0.83;0.70;;;20.70;97.00;;;;;;5039654;28;20077;-70
2021/05/30 12:23:53;;;;;;;0.80;0.80;;;20.80;96.90;;;;;;5053730;28;20326;-70
2021/05/30 12:26:20;;;;;;;1.23;0.85;;;20.80;96.50;;;;;;5049218;28;20081;-70
2021/05/30 12:28:48;;;;;;;1.83;1.13;;;20.90;96.10;;;;;;5052574;28;20080;-70
2021/05/30 12:31:17;;;;;;;1.10;1.00;;;20.90;95.30;;;;;;5020986;28;20053;-70
2021/05/30 12:33:53;;;;;;;1.58;0.95;;;20.80;94.70;;;;;;5049279;28;20322;-70
2021/05/30 12:36:43;;;;;;;1.10;1.02;;;20.80;94.60;;;;;;5045974;28;20068;-70
2021/05/30 12:39:21;;;;;;;0.90;0.80;;;20.90;92.50;;;;;;5050422;28;20041;-70
2021/05/30 12:41:57;;;;;;;1.85;0.90;;;20.90;93.90;;;;;;5047134;28;20078;-70
2021/05/30 12:44:31;;;;;;;0.65;0.60;;;20.90;94.00;;;;;;5018689;28;20453;-70
2021/05/30 12:46:59;;;;;;;0.77;0.77;;;21.00;94.10;;;;;;5051690;28;20593;-70
2021/05/30 12:49:27;;;;;;;0.95;0.80;;;21.10;94.10;;;;;;5034332;28;20048;-71
2021/05/30 12:52:17;;;;;;;0.77;0.77;;;21.10;93.50;;;;;;5052597;28;20076;-70
2021/05/30 12:54:57;;;;;;;0.60;0.60;;;21.20;92.90;;;;;;5048071;28;20377;-70
2021/05/30 12:57:33;;;;;;;1.08;0.82;;;21.20;93.40;;;;;;5049949;28;20154;-70
2021/05/30 13:00:06;;;;;;;0.82;0.73;;;21.20;92.90;;;;;;5022510;28;20046;-70
2021/05/30 13:02:33;;;;;;;1.45;0.82;;;21.30;92.70;;;;;;5020833;28;20531;-70
2021/05/30 13:05:00;;;;;;;0.80;0.67;;;21.30;92.60;;;;;;5033340;28;20061;-70
2021/05/30 13:07:35;;;;;;;0.73;0.70;;;21.30;92.40;;;;;;5028695;28;20072;-70
2021/05/30 13:10:07;;;;;;;1.73;1.02;;;21.30;91.90;;;;;;5025007;28;20046;-70
2021/05/30 13:12:43;;;;;;;1.02;0.80;;;21.40;91.70;;;;;;5031598;28;20536;-70
2021/05/30 13:15:15;;;;;;;0.98;0.80;;;21.40;92.00;;;;;;5019279;28;20096;-70
2021/05/30 13:17:51;;;;;;;2.30;0.85;;;21.40;92.00;;;;;;5025118;28;20100;-70
2021/05/30 13:20:21;;;;;;;1.55;0.88;;;21.50;91.20;;;;;;5045811;28;20049;-70
2021/05/30 13:22:59;;;;;;;1.38;0.90;;;21.50;90.80;;;;;;5028150;28;20088;-71